Time;durP1;ratioP1;P1;durP2;ratioP2;P2;SDS_P1;SDS_P2;PMS_P1;PMS_P2;Temp;Humidity;BMP_temperature;BMP_pressure;BME280_temperature;BME280_humidity;BME280_pressure;Samples;Min_cycle;Max_cycle;Signal;HPM_P1;HPM_P2
2021/07/29 00:00:21;;;;;;;8.48;4.82;;;15.20;99.90;;;;;;4212090;28;20036;-77
2021/07/29 00:02:24;;;;;;;6.60;4.68;;;15.10;99.90;;;;;;4195942;28;20506;-77
2021/07/29 00:04:25;;;;;;;10.07;4.70;;;15.00;99.90;;;;;;4212454;28;20052;-80
2021/07/29 00:06:26;;;;;;;8.30;4.30;;;15.10;99.90;;;;;;4192326;28;20572;-78
2021/07/29 00:08:26;;;;;;;6.45;4.82;;;15.20;99.90;;;;;;4191568;28;20035;-78
2021/07/29 00:10:28;;;;;;;8.13;4.75;;;15.20;99.90;;;;;;4211105;28;20043;-79
2021/07/29 00:12:28;;;;;;;8.52;4.18;;;15.20;99.90;;;;;;4195123;28;20108;-78
2021/07/29 00:14:29;;;;;;;9.63;4.88;;;15.10;99.90;;;;;;4192663;28;20550;-77
2021/07/29 00:16:32;;;;;;;6.85;4.57;;;15.10;99.90;;;;;;4202000;28;20444;-78
2021/07/29 00:20:53;;;;;;;12.73;4.60;;;15.00;99.90;;;;;;4212261;28;20448;-79
2021/07/29 00:22:58;;;;;;;13.32;4.95;;;14.90;99.90;;;;;;4195539;28;20040;-78
2021/07/29 00:25:00;;;;;;;8.43;4.63;;;14.90;99.90;;;;;;4193640;28;20119;-78
2021/07/29 00:27:02;;;;;;;6.25;4.50;;;14.90;99.90;;;;;;4192018;28;20020;-79
2021/07/29 00:29:03;;;;;;;13.02;5.18;;;15.00;99.90;;;;;;4211555;28;20040;-79
2021/07/29 00:31:04;;;;;;;13.73;4.50;;;15.10;99.90;;;;;;4210188;28;20035;-78
2021/07/29 00:33:04;;;;;;;9.13;4.13;;;15.10;99.90;;;;;;4211570;28;20040;-81
2021/07/29 00:35:14;;;;;;;6.40;4.30;;;15.10;99.90;;;;;;4192735;28;20517;-79
2021/07/29 00:37:14;;;;;;;9.63;4.07;;;15.00;99.90;;;;;;4194634;28;20043;-79
2021/07/29 00:39:15;;;;;;;9.65;4.57;;;15.00;99.90;;;;;;4211649;28;20040;-79
2021/07/29 00:41:16;;;;;;;9.80;4.20;;;15.10;99.90;;;;;;4193452;28;20514;-79
2021/07/29 00:43:17;;;;;;;11.00;4.57;;;15.10;99.90;;;;;;4194974;28;20036;-78
2021/07/29 00:45:17;;;;;;;9.40;4.60;;;15.20;99.90;;;;;;4209759;28;20028;-79
2021/07/29 00:47:19;;;;;;;9.27;4.28;;;15.10;99.90;;;;;;4214034;28;20052;-79
2021/07/29 00:49:21;;;;;;;7.45;3.70;;;15.10;99.90;;;;;;4211236;28;20044;-78
2021/07/29 00:51:22;;;;;;;6.40;3.35;;;15.10;99.90;;;;;;4213177;28;20029;-78
2021/07/29 00:53:24;;;;;;;7.32;3.75;;;15.10;99.90;;;;;;4209682;28;20485;-79
2021/07/29 00:55:25;;;;;;;8.80;3.80;;;15.30;99.90;;;;;;4213839;28;20119;-79
2021/07/29 00:57:25;;;;;;;10.57;4.03;;;15.30;99.90;;;;;;4189247;28;20040;-79
2021/07/29 00:59:26;;;;;;;11.73;4.47;;;15.30;99.90;;;;;;4212336;28;20499;-79
2021/07/29 01:01:27;;;;;;;9.45;4.13;;;15.20;99.90;;;;;;4209558;28;20388;-79
2021/07/29 01:03:28;;;;;;;15.43;5.03;;;15.20;99.90;;;;;;4195965;28;20027;-79
2021/07/29 01:05:28;;;;;;;10.27;4.82;;;15.10;99.90;;;;;;4193161;28;20111;-79
2021/07/29 01:07:29;;;;;;;8.73;3.55;;;15.00;99.90;;;;;;4192832;28;20039;-79
2021/07/29 01:09:30;;;;;;;6.57;3.80;;;15.00;99.90;;;;;;4192391;28;20036;-79
2021/07/29 01:11:30;;;;;;;7.03;3.58;;;14.80;99.90;;;;;;4192198;28;20055;-79
2021/07/29 01:13:31;;;;;;;9.63;3.42;;;14.80;99.90;;;;;;4191968;28;20075;-79
2021/07/29 01:15:32;;;;;;;11.50;4.25;;;14.70;99.90;;;;;;4193983;28;20056;-79
2021/07/29 01:17:33;;;;;;;12.02;3.60;;;14.70;99.90;;;;;;4194554;28;20403;-79
2021/07/29 01:19:33;;;;;;;8.73;3.88;;;14.60;99.90;;;;;;4192356;28;20083;-79
2021/07/29 01:21:35;;;;;;;6.70;4.18;;;14.60;99.90;;;;;;4194114;28;20591;-79
2021/07/29 01:23:36;;;;;;;9.65;4.07;;;14.70;99.90;;;;;;4197281;28;20374;-79
2021/07/29 01:25:37;;;;;;;11.27;4.82;;;14.70;99.90;;;;;;4210397;28;20119;-79
2021/07/29 01:27:38;;;;;;;13.73;4.18;;;14.70;99.90;;;;;;4188578;28;20515;-79
2021/07/29 01:29:39;;;;;;;9.70;3.58;;;14.70;99.90;;;;;;4212033;28;20035;-80
2021/07/29 01:31:40;;;;;;;13.23;4.32;;;14.70;99.90;;;;;;4211741;28;20032;-80
2021/07/29 01:33:41;;;;;;;9.52;3.97;;;14.70;99.90;;;;;;4211245;28;20466;-79
2021/07/29 01:35:43;;;;;;;9.68;4.32;;;14.80;99.90;;;;;;4189809;28;20075;-79
2021/07/29 01:37:44;;;;;;;8.23;4.30;;;14.70;99.90;;;;;;4193838;28;20032;-79
2021/07/29 01:39:45;;;;;;;7.78;4.35;;;14.80;99.90;;;;;;4208618;28;20048;-80
2021/07/29 01:41:46;;;;;;;11.70;4.25;;;14.70;99.90;;;;;;4204255;28;20036;-80
2021/07/29 01:43:48;;;;;;;10.63;4.35;;;14.60;99.90;;;;;;4194238;28;20036;-80
2021/07/29 01:45:48;;;;;;;11.70;4.47;;;14.60;99.90;;;;;;4211154;28;20028;-80
2021/07/29 01:47:49;;;;;;;11.13;4.30;;;14.50;99.90;;;;;;4192523;28;20049;-79
2021/07/29 01:49:53;;;;;;;12.25;4.50;;;14.50;99.90;;;;;;4212988;28;20028;-79
2021/07/29 01:51:55;;;;;;;9.20;3.90;;;14.60;99.90;;;;;;4193182;28;20040;-80
2021/07/29 01:53:58;;;;;;;12.40;5.00;;;14.50;99.90;;;;;;4193223;28;20043;-79
2021/07/29 01:55:58;;;;;;;7.38;4.43;;;14.50;99.90;;;;;;4210352;28;20036;-79
2021/07/29 01:57:59;;;;;;;10.02;4.43;;;14.40;99.90;;;;;;4212083;28;20131;-80
2021/07/29 02:00:00;;;;;;;11.95;4.45;;;14.40;99.90;;;;;;4212414;28;20484;-80
2021/07/29 02:02:00;;;;;;;7.47;4.13;;;14.30;99.90;;;;;;4194580;28;20098;-79
2021/07/29 02:04:01;;;;;;;15.30;5.25;;;14.40;99.90;;;;;;4192291;28;20024;-80
2021/07/29 02:06:03;;;;;;;10.00;4.40;;;14.60;99.90;;;;;;4213583;28;20041;-79
2021/07/29 02:08:03;;;;;;;12.68;4.57;;;14.60;99.90;;;;;;4210198;28;20082;-79
2021/07/29 02:10:04;;;;;;;16.33;4.82;;;14.60;99.90;;;;;;4212321;28;21127;-79
2021/07/29 02:12:05;;;;;;;10.68;4.20;;;14.60;99.90;;;;;;4194041;28;20063;-79
2021/07/29 02:14:07;;;;;;;13.00;4.55;;;14.60;99.90;;;;;;4212973;28;20548;-80
2021/07/29 02:16:10;;;;;;;8.90;4.43;;;14.60;99.90;;;;;;4193365;28;20072;-78
2021/07/29 02:18:11;;;;;;;10.05;3.45;;;14.50;99.90;;;;;;4204146;28;20370;-77
2021/07/29 02:20:12;;;;;;;15.52;5.07;;;14.60;99.90;;;;;;4190973;28;20079;-78
2021/07/29 02:22:13;;;;;;;14.85;5.60;;;14.70;99.90;;;;;;4210472;28;20051;-78
2021/07/29 02:24:14;;;;;;;9.00;4.47;;;14.60;99.90;;;;;;4210583;28;20025;-78
2021/07/29 02:26:16;;;;;;;14.82;4.75;;;14.80;99.90;;;;;;4209261;28;20532;-78
2021/07/29 02:28:17;;;;;;;9.18;4.68;;;14.60;99.90;;;;;;4193451;28;20032;-77
2021/07/29 02:30:17;;;;;;;12.48;4.93;;;14.90;99.90;;;;;;4191719;28;20024;-77
2021/07/29 02:32:18;;;;;;;18.00;5.68;;;14.80;99.90;;;;;;4212521;28;20062;-78
2021/07/29 02:34:19;;;;;;;9.80;4.47;;;14.60;99.90;;;;;;4189668;28;20162;-78
2021/07/29 02:36:22;;;;;;;10.57;4.82;;;14.90;99.90;;;;;;4193280;28;20075;-78
2021/07/29 02:38:22;;;;;;;8.98;3.75;;;14.90;99.90;;;;;;4196732;28;20499;-77
2021/07/29 02:40:23;;;;;;;14.73;5.00;;;14.60;99.90;;;;;;4218511;28;20062;-79
2021/07/29 02:42:24;;;;;;;8.27;4.13;;;15.00;99.90;;;;;;4211882;28;20849;-77
2021/07/29 02:44:24;;;;;;;10.73;4.30;;;15.80;99.90;;;;;;4193053;28;20044;-80
2021/07/29 02:46:25;;;;;;;16.80;5.05;;;14.80;99.90;;;;;;4208129;28;20081;-79
2021/07/29 02:48:26;;;;;;;11.68;4.20;;;14.80;99.90;;;;;;4193782;28;20075;-78
2021/07/29 02:50:26;;;;;;;12.35;4.95;;;14.70;99.90;;;;;;4211317;28;20035;-78
2021/07/29 02:52:27;;;;;;;11.02;4.93;;;14.40;99.90;;;;;;4191101;28;20380;-79
2021/07/29 02:54:28;;;;;;;17.63;4.47;;;14.90;99.90;;;;;;4189512;28;20029;-78
2021/07/29 02:56:28;;;;;;;10.93;4.03;;;15.00;99.90;;;;;;4211761;28;20116;-79
2021/07/29 02:58:29;;;;;;;11.32;4.45;;;15.00;99.90;;;;;;4201398;28;20032;-78
2021/07/29 03:00:30;;;;;;;15.40;6.32;;;15.60;99.90;;;;;;4210286;28;20581;-79
2021/07/29 03:02:31;;;;;;;16.25;4.53;;;14.80;99.90;;;;;;4211134;28;20031;-80
2021/07/29 03:04:32;;;;;;;12.50;5.93;;;14.60;99.90;;;;;;4194310;28;20121;-81
2021/07/29 03:06:33;;;;;;;12.63;5.65;;;14.90;99.90;;;;;;4192393;28;20516;-81
2021/07/29 03:08:35;;;;;;;11.77;4.95;;;13.60;99.90;;;;;;4211362;28;20028;-79
2021/07/29 03:10:36;;;;;;;18.33;5.40;;;14.30;99.90;;;;;;4209167;28;20028;-80
2021/07/29 03:12:36;;;;;;;21.52;5.45;;;14.10;99.90;;;;;;4194235;28;20090;-82
2021/07/29 03:14:46;;;;;;;14.60;4.85;;;13.80;99.90;;;;;;4194763;28;20094;-81
2021/07/29 03:16:53;;;;;;;15.60;5.80;;;14.10;99.90;;;;;;4192970;28;20089;-81
2021/07/29 03:19:02;;;;;;;13.57;5.13;;;14.10;99.90;;;;;;4193601;28;20033;-82
2021/07/29 03:21:16;;;;;;;14.80;5.18;;;14.20;99.90;;;;;;4189216;28;20029;-83
2021/07/29 03:23:17;;;;;;;16.95;6.40;;;14.20;99.90;;;;;;4177524;28;20075;-82
2021/07/29 03:25:19;;;;;;;11.82;5.75;;;14.10;99.90;;;;;;4177247;28;20041;-81
2021/07/29 03:27:45;;;;;;;17.40;5.72;;;14.10;99.90;;;;;;4179553;28;20429;-82
2021/07/29 03:29:47;;;;;;;19.55;6.38;;;14.10;99.90;;;;;;4186086;28;20037;-81
2021/07/29 03:31:59;;;;;;;18.08;7.38;;;13.90;99.90;;;;;;4181802;28;20067;-82
2021/07/29 03:34:22;;;;;;;18.50;6.65;;;13.80;99.90;;;;;;4178705;28;20025;-81
2021/07/29 03:36:22;;;;;;;16.13;6.15;;;13.90;99.90;;;;;;4180231;28;20535;-80
2021/07/29 03:38:24;;;;;;;15.30;6.47;;;13.80;99.90;;;;;;4175417;28;20025;-80
2021/07/29 03:40:27;;;;;;;21.60;6.65;;;14.00;99.90;;;;;;4178489;28;20040;-83
2021/07/29 03:42:35;;;;;;;20.85;7.10;;;13.90;99.90;;;;;;4173451;28;20415;-85
2021/07/29 03:44:44;;;;;;;21.23;7.25;;;13.80;99.90;;;;;;4185555;28;20082;-84
2021/07/29 03:46:51;;;;;;;20.73;7.45;;;14.00;99.90;;;;;;4179745;28;20379;-83
2021/07/29 03:49:09;;;;;;;21.77;6.50;;;13.80;99.90;;;;;;4183983;28;20029;-82
2021/07/29 03:51:13;;;;;;;24.60;8.05;;;14.00;99.90;;;;;;4181973;28;20404;-84
2021/07/29 03:53:15;;;;;;;23.00;6.80;;;13.60;99.90;;;;;;4182620;28;20052;-83
2021/07/29 03:55:16;;;;;;;23.70;7.72;;;13.70;99.90;;;;;;4179056;28;20029;-81
2021/07/29 03:57:19;;;;;;;18.55;6.38;;;14.00;99.90;;;;;;4180737;28;20037;-81
2021/07/29 03:59:20;;;;;;;14.82;5.47;;;13.90;99.90;;;;;;4182661;28;20472;-83
2021/07/29 04:01:21;;;;;;;15.05;5.80;;;13.80;99.90;;;;;;4180469;28;20099;-82
2021/07/29 04:03:22;;;;;;;19.27;6.38;;;13.90;99.90;;;;;;4181177;28;20076;-80
2021/07/29 04:05:24;;;;;;;14.57;6.22;;;13.80;99.90;;;;;;4181328;28;20040;-81
2021/07/29 04:07:25;;;;;;;21.65;6.47;;;13.60;99.90;;;;;;4178416;28;20047;-80
2021/07/29 04:09:25;;;;;;;18.00;6.68;;;13.70;99.90;;;;;;4180152;28;20116;-81
2021/07/29 04:11:26;;;;;;;14.52;6.30;;;13.70;99.90;;;;;;4180649;28;20032;-80
2021/07/29 04:13:27;;;;;;;13.88;7.25;;;13.40;99.90;;;;;;4170966;28;20446;-80
2021/07/29 04:15:28;;;;;;;20.42;6.57;;;13.30;99.90;;;;;;4179164;28;20396;-80
2021/07/29 04:17:31;;;;;;;17.80;6.68;;;13.90;99.90;;;;;;4182134;28;20387;-80
2021/07/29 04:19:35;;;;;;;19.63;5.68;;;13.60;99.90;;;;;;4177944;28;20033;-80
2021/07/29 04:21:36;;;;;;;14.23;6.05;;;13.60;99.90;;;;;;4179307;28;20040;-80
2021/07/29 04:23:46;;;;;;;11.57;5.35;;;13.60;99.90;;;;;;4194340;28;20389;-80
2021/07/29 04:25:48;;;;;;;12.60;5.85;;;13.60;99.90;;;;;;4194921;28;20036;-80
2021/07/29 04:27:48;;;;;;;20.33;7.03;;;13.60;99.90;;;;;;4193172;28;20514;-78
2021/07/29 04:29:50;;;;;;;19.48;6.72;;;13.60;99.90;;;;;;4195944;28;20036;-80
2021/07/29 04:31:53;;;;;;;17.40;6.88;;;13.60;99.90;;;;;;4192477;28;20521;-78
2021/07/29 04:33:53;;;;;;;17.63;7.25;;;13.50;99.90;;;;;;4178175;28;20037;-78
2021/07/29 04:35:54;;;;;;;16.55;7.18;;;13.50;99.90;;;;;;4195559;28;20052;-78
2021/07/29 04:37:54;;;;;;;19.38;8.75;;;13.60;99.90;;;;;;4194541;28;20123;-79
2021/07/29 04:39:55;;;;;;;21.17;8.15;;;13.50;99.90;;;;;;4194456;28;20415;-78
2021/07/29 04:41:58;;;;;;;21.88;9.68;;;13.40;99.90;;;;;;4193729;28;20415;-78
2021/07/29 04:43:59;;;;;;;16.05;6.82;;;13.30;99.90;;;;;;4196728;28;20482;-80
2021/07/29 04:46:04;;;;;;;14.88;8.18;;;13.40;99.90;;;;;;4196453;28;20037;-79
2021/07/29 04:48:05;;;;;;;19.10;7.68;;;13.40;99.90;;;;;;4194373;28;20431;-79
2021/07/29 04:50:06;;;;;;;20.65;8.30;;;13.50;99.90;;;;;;4194861;28;20050;-79
2021/07/29 04:52:07;;;;;;;22.63;8.45;;;13.60;99.90;;;;;;4190183;28;20575;-79
2021/07/29 04:54:07;;;;;;;27.40;7.95;;;13.40;99.90;;;;;;4195287;28;20045;-79
2021/07/29 04:56:08;;;;;;;19.25;7.68;;;13.30;99.90;;;;;;4195799;28;20021;-79
2021/07/29 04:58:09;;;;;;;17.63;8.27;;;13.70;99.90;;;;;;4191911;28;20504;-78
2021/07/29 05:00:11;;;;;;;24.05;8.98;;;13.80;99.90;;;;;;4195009;28;20444;-78
2021/07/29 05:02:11;;;;;;;21.98;7.93;;;13.70;99.90;;;;;;4194333;28;20087;-78
2021/07/29 05:04:12;;;;;;;25.17;7.78;;;13.80;99.90;;;;;;4191879;28;20032;-78
2021/07/29 05:06:13;;;;;;;30.30;7.90;;;13.70;99.90;;;;;;4194493;28;20052;-78
2021/07/29 05:08:15;;;;;;;22.02;7.05;;;13.80;99.90;;;;;;4197177;28;20035;-78
2021/07/29 05:10:15;;;;;;;19.92;8.15;;;13.90;99.90;;;;;;4191842;28;20033;-81
2021/07/29 05:12:16;;;;;;;19.60;6.05;;;14.10;99.90;;;;;;4197235;28;20035;-81
2021/07/29 05:14:17;;;;;;;19.20;6.10;;;14.30;99.90;;;;;;4198531;28;20116;-81
2021/07/29 05:16:18;;;;;;;27.60;7.22;;;14.20;99.90;;;;;;4191334;28;20021;-77
2021/07/29 05:18:19;;;;;;;21.08;6.05;;;14.20;99.90;;;;;;4193129;28;20028;-78
2021/07/29 05:20:19;;;;;;;23.15;6.78;;;14.30;99.90;;;;;;4195561;28;20503;-78
2021/07/29 05:22:21;;;;;;;15.05;7.10;;;14.10;99.90;;;;;;4205014;28;20036;-78
2021/07/29 05:24:22;;;;;;;22.50;7.50;;;14.30;99.90;;;;;;4213090;28;20043;-78
2021/07/29 05:26:23;;;;;;;16.40;7.13;;;14.20;99.90;;;;;;4191858;28;20029;-78
2021/07/29 05:28:25;;;;;;;26.38;6.40;;;14.30;99.90;;;;;;4206435;28;20091;-78
2021/07/29 05:30:25;;;;;;;17.80;6.72;;;14.30;99.90;;;;;;4213410;28;20058;-79
2021/07/29 05:32:26;;;;;;;16.45;5.75;;;14.20;99.90;;;;;;4195228;28;20092;-79
2021/07/29 05:34:28;;;;;;;18.50;7.40;;;14.60;99.90;;;;;;4212991;28;20039;-79
2021/07/29 05:36:30;;;;;;;15.88;6.30;;;14.60;99.90;;;;;;4191495;28;20028;-81
2021/07/29 05:38:31;;;;;;;21.33;5.43;;;14.60;99.90;;;;;;4193870;28;20020;-80
2021/07/29 05:40:32;;;;;;;27.92;6.80;;;14.60;99.90;;;;;;4193490;28;20040;-79
2021/07/29 05:42:33;;;;;;;20.45;6.22;;;14.50;99.90;;;;;;4211038;28;20036;-80
2021/07/29 05:44:36;;;;;;;19.52;5.88;;;14.40;99.90;;;;;;4192170;28;20052;-77
2021/07/29 05:46:36;;;;;;;18.10;5.28;;;14.40;99.90;;;;;;4208318;28;20025;-78
2021/07/29 05:48:38;;;;;;;11.07;6.07;;;14.30;99.90;;;;;;4205177;28;20364;-81
2021/07/29 05:50:39;;;;;;;12.73;5.53;;;14.30;99.90;;;;;;4207845;28;20024;-78
2021/07/29 05:52:40;;;;;;;18.00;4.93;;;14.40;99.90;;;;;;4193005;28;20120;-81
2021/07/29 05:54:40;;;;;;;15.90;6.60;;;14.70;99.90;;;;;;4195113;28;20036;-78
2021/07/29 05:56:41;;;;;;;23.25;5.70;;;14.70;99.90;;;;;;4191265;28;20053;-79
2021/07/29 05:58:42;;;;;;;19.27;5.05;;;14.60;99.90;;;;;;4195400;28;20028;-81
2021/07/29 06:00:43;;;;;;;16.02;4.95;;;14.80;99.90;;;;;;4210897;28;20036;-80
2021/07/29 06:02:43;;;;;;;18.65;5.03;;;14.70;99.90;;;;;;4193424;28;20028;-78
2021/07/29 06:04:45;;;;;;;19.42;5.90;;;14.90;99.90;;;;;;4193345;28;20384;-79
2021/07/29 06:06:45;;;;;;;20.33;5.82;;;14.80;99.90;;;;;;4211341;28;20024;-79
2021/07/29 06:08:53;;;;;;;15.60;5.15;;;14.90;99.90;;;;;;4191996;28;20052;-78
2021/07/29 06:10:54;;;;;;;15.38;5.20;;;14.90;99.90;;;;;;4192220;28;20090;-78
2021/07/29 06:12:55;;;;;;;20.38;4.88;;;15.00;99.90;;;;;;4210082;28;20368;-78
2021/07/29 06:14:55;;;;;;;14.73;5.00;;;15.10;99.90;;;;;;4193315;28;20048;-80
2021/07/29 06:16:57;;;;;;;16.33;6.35;;;15.00;99.90;;;;;;4221186;28;20019;-79
2021/07/29 06:19:09;;;;;;;12.25;5.45;;;15.20;99.90;;;;;;4202747;28;20514;-79
2021/07/29 06:21:10;;;;;;;16.30;6.20;;;15.20;99.90;;;;;;4187855;28;20041;-78
2021/07/29 06:23:12;;;;;;;15.00;5.88;;;15.20;99.90;;;;;;4211687;28;20119;-79
2021/07/29 06:25:14;;;;;;;15.88;6.05;;;15.30;99.90;;;;;;4192410;28;20479;-80
2021/07/29 06:27:16;;;;;;;13.02;5.47;;;15.50;99.90;;;;;;4212241;28;20021;-79
2021/07/29 06:29:17;;;;;;;15.35;5.78;;;15.50;99.90;;;;;;4184110;28;20028;-78
2021/07/29 06:31:18;;;;;;;10.80;4.55;;;15.60;99.90;;;;;;4193478;28;20687;-78
2021/07/29 06:33:19;;;;;;;13.45;5.40;;;15.60;99.90;;;;;;4212191;28;20062;-78
2021/07/29 06:35:20;;;;;;;14.70;5.38;;;15.60;99.90;;;;;;4207833;28;20028;-79
2021/07/29 06:37:21;;;;;;;10.48;4.40;;;15.90;99.90;;;;;;4211120;28;20086;-78
2021/07/29 06:39:22;;;;;;;11.50;4.70;;;15.90;99.90;;;;;;4191477;28;20399;-79
2021/07/29 06:41:23;;;;;;;15.02;5.35;;;16.10;99.90;;;;;;4191446;28;20032;-77
2021/07/29 06:43:23;;;;;;;25.42;6.03;;;16.30;99.90;;;;;;4210398;28;20115;-79
2021/07/29 06:45:24;;;;;;;15.25;6.57;;;16.40;99.90;;;;;;4211878;28;20052;-78
2021/07/29 06:47:27;;;;;;;13.63;5.65;;;16.60;99.90;;;;;;4208858;28;20039;-80
2021/07/29 06:49:31;;;;;;;10.35;4.97;;;16.50;99.90;;;;;;4208870;28;20071;-78
2021/07/29 06:51:35;;;;;;;19.55;5.65;;;16.60;99.90;;;;;;4213179;28;20032;-77
2021/07/29 06:53:36;;;;;;;14.20;5.22;;;16.60;99.90;;;;;;4210989;28;20042;-79
2021/07/29 06:55:37;;;;;;;16.98;6.97;;;16.30;99.90;;;;;;4210684;28;20040;-79
2021/07/29 06:57:38;;;;;;;17.10;5.88;;;16.40;99.90;;;;;;4193906;28;20036;-80
2021/07/29 06:59:40;;;;;;;20.55;7.00;;;16.40;99.90;;;;;;4195365;28;20032;-79
2021/07/29 07:01:41;;;;;;;11.38;5.43;;;16.60;99.90;;;;;;4209262;28;20044;-78
2021/07/29 07:03:43;;;;;;;14.75;5.95;;;16.50;99.90;;;;;;4191868;28;20054;-78
2021/07/29 07:05:47;;;;;;;16.90;5.78;;;16.60;99.90;;;;;;4210658;28;20036;-78
2021/07/29 07:07:47;;;;;;;19.05;6.70;;;16.60;99.90;;;;;;4214159;28;20020;-77
2021/07/29 07:09:49;;;;;;;15.63;5.53;;;16.70;99.90;;;;;;4194862;28;20041;-78
2021/07/29 07:11:50;;;;;;;16.90;5.28;;;16.60;99.90;;;;;;4196682;28;20052;-78
2021/07/29 07:13:51;;;;;;;10.45;4.47;;;16.60;99.90;;;;;;4190445;28;20103;-78
2021/07/29 07:15:53;;;;;;;14.38;5.25;;;16.50;99.90;;;;;;4214540;28;20043;-78
2021/07/29 07:17:56;;;;;;;12.70;4.85;;;16.40;99.90;;;;;;4210704;28;20028;-78
2021/07/29 07:20:00;;;;;;;18.10;6.15;;;16.50;99.90;;;;;;4191267;28;20039;-78
2021/07/29 07:22:01;;;;;;;19.77;6.35;;;16.60;99.90;;;;;;4199946;28;20587;-77
2021/07/29 07:24:04;;;;;;;18.77;5.95;;;16.60;99.90;;;;;;4214680;28;20056;-79
2021/07/29 07:26:05;;;;;;;23.13;5.68;;;16.70;99.90;;;;;;4193774;28;20579;-79
2021/07/29 07:28:06;;;;;;;12.65;5.82;;;16.80;99.90;;;;;;4215171;28;20111;-78
2021/07/29 07:30:08;;;;;;;18.13;5.65;;;16.70;99.90;;;;;;4195377;28;20040;-78
2021/07/29 07:32:08;;;;;;;13.90;4.40;;;16.90;99.90;;;;;;4196585;28;20074;-77
2021/07/29 07:34:09;;;;;;;15.40;5.07;;;17.10;99.90;;;;;;4195903;28;20071;-77
2021/07/29 07:36:10;;;;;;;16.88;6.30;;;17.00;99.90;;;;;;4213326;28;20495;-78
2021/07/29 07:38:11;;;;;;;14.50;4.78;;;17.20;99.90;;;;;;4192662;28;20029;-77
2021/07/29 07:40:13;;;;;;;12.95;4.03;;;17.20;99.90;;;;;;4199246;28;20679;-80
2021/07/29 07:42:14;;;;;;;15.80;5.07;;;17.50;99.90;;;;;;4214627;28;20044;-79
2021/07/29 07:44:15;;;;;;;12.38;5.78;;;17.40;99.90;;;;;;4193334;28;20028;-78
2021/07/29 07:46:16;;;;;;;15.68;5.75;;;17.70;99.90;;;;;;4210707;28;20476;-79
2021/07/29 07:48:17;;;;;;;11.85;5.00;;;17.80;99.90;;;;;;4211820;28;20024;-79
2021/07/29 07:50:18;;;;;;;11.32;4.20;;;17.80;99.90;;;;;;4199442;28;20024;-79
2021/07/29 07:52:18;;;;;;;11.48;4.30;;;18.20;99.90;;;;;;4196775;28;20082;-78
2021/07/29 07:54:19;;;;;;;13.88;5.22;;;18.10;99.90;;;;;;4205364;28;20024;-80
2021/07/29 07:56:19;;;;;;;13.30;5.53;;;17.90;99.90;;;;;;4195385;28;20129;-80
2021/07/29 07:58:21;;;;;;;13.80;4.05;;;18.10;99.90;;;;;;4207703;28;20059;-78
2021/07/29 08:00:21;;;;;;;13.43;4.05;;;18.50;99.90;;;;;;4210493;28;20052;-79
2021/07/29 08:02:23;;;;;;;14.65;4.68;;;18.80;99.90;;;;;;4210501;28;20039;-79
2021/07/29 08:04:24;;;;;;;15.15;4.38;;;18.70;99.90;;;;;;4191079;28;20067;-78
2021/07/29 08:06:24;;;;;;;14.13;4.45;;;18.80;99.90;;;;;;4211932;28;20027;-79
2021/07/29 08:08:25;;;;;;;9.48;4.07;;;18.60;99.90;;;;;;4206956;28;20032;-80
2021/07/29 08:10:28;;;;;;;13.00;4.03;;;18.70;99.90;;;;;;4210756;28;20020;-81
2021/07/29 08:12:29;;;;;;;13.32;4.57;;;18.80;99.90;;;;;;4194230;28;20037;-78
2021/07/29 08:14:31;;;;;;;12.88;5.22;;;18.90;99.90;;;;;;4192145;28;20527;-77
2021/07/29 08:16:32;;;;;;;8.75;3.80;;;18.80;99.90;;;;;;4194108;28;20036;-79
2021/07/29 08:18:32;;;;;;;8.52;4.32;;;19.10;99.90;;;;;;4208295;28;20494;-81
2021/07/29 08:20:33;;;;;;;15.30;3.80;;;19.30;99.90;;;;;;4210234;28;20035;-80
2021/07/29 08:22:33;;;;;;;12.48;4.53;;;19.10;99.90;;;;;;4203964;28;20412;-78
2021/07/29 08:24:34;;;;;;;17.75;4.43;;;18.70;99.90;;;;;;4211492;28;20040;-78
2021/07/29 08:26:34;;;;;;;12.23;3.75;;;18.50;99.90;;;;;;4213390;28;20448;-78
2021/07/29 08:28:38;;;;;;;10.05;4.20;;;18.80;99.90;;;;;;4206932;28;20037;-79
2021/07/29 08:30:39;;;;;;;7.93;3.92;;;18.90;99.90;;;;;;4207675;28;20032;-78
2021/07/29 08:32:39;;;;;;;17.60;4.40;;;18.80;99.90;;;;;;4192798;28;20040;-78
2021/07/29 08:34:40;;;;;;;14.80;4.50;;;19.00;99.90;;;;;;4191924;28;20052;-78
2021/07/29 08:36:42;;;;;;;16.48;4.57;;;19.30;99.90;;;;;;4193030;28;20410;-79
2021/07/29 08:38:44;;;;;;;11.77;3.80;;;19.40;99.90;;;;;;4192241;28;20368;-79
2021/07/29 08:40:44;;;;;;;17.50;4.28;;;19.50;99.90;;;;;;4191928;28;20174;-79
2021/07/29 08:42:46;;;;;;;12.68;4.15;;;19.50;99.90;;;;;;4194623;28;20037;-78
2021/07/29 08:44:47;;;;;;;13.18;5.38;;;19.60;99.90;;;;;;4199982;28;20058;-78
2021/07/29 08:46:49;;;;;;;10.45;4.20;;;19.80;99.90;;;;;;4208271;28;20137;-78
2021/07/29 08:48:51;;;;;;;14.88;4.78;;;19.70;99.90;;;;;;4193108;28;20372;-80
2021/07/29 08:50:55;;;;;;;14.27;4.18;;;19.70;99.90;;;;;;4210002;28;20024;-79
2021/07/29 08:52:56;;;;;;;11.63;4.18;;;19.50;99.90;;;;;;4193488;28;20037;-77
2021/07/29 08:54:57;;;;;;;10.18;3.72;;;19.50;99.90;;;;;;4194201;28;20083;-77
2021/07/29 08:56:58;;;;;;;10.50;3.97;;;19.40;99.90;;;;;;4194915;28;20036;-78
2021/07/29 08:58:59;;;;;;;15.57;4.18;;;19.20;99.90;;;;;;4210159;28;20072;-77
2021/07/29 09:01:09;;;;;;;12.50;4.50;;;18.90;99.90;;;;;;4214090;28;20043;-77
2021/07/29 09:03:20;;;;;;;11.20;4.43;;;18.90;99.90;;;;;;4177778;28;20060;-78
2021/07/29 09:05:21;;;;;;;9.63;4.35;;;19.20;99.90;;;;;;4191429;28;20056;-77
2021/07/29 09:07:22;;;;;;;9.45;4.57;;;19.30;99.90;;;;;;4211537;28;20421;-77
2021/07/29 09:09:47;;;;;;;8.95;4.50;;;19.60;99.90;;;;;;4203910;28;20036;-76
2021/07/29 09:11:49;;;;;;;10.80;3.65;;;19.70;99.90;;;;;;4212324;28;20020;-78
2021/07/29 09:14:15;;;;;;;8.52;3.05;;;19.70;99.90;;;;;;4196805;28;20028;-77
2021/07/29 09:16:15;;;;;;;9.05;3.35;;;19.70;99.90;;;;;;4212419;28;20373;-78
2021/07/29 09:18:17;;;;;;;13.90;4.68;;;19.60;99.90;;;;;;4211770;28;20034;-78
2021/07/29 09:20:19;;;;;;;8.48;2.83;;;19.30;99.90;;;;;;4189793;28;20104;-78
2021/07/29 09:22:27;;;;;;;11.10;3.65;;;19.30;99.90;;;;;;4193011;28;20063;-77
2021/07/29 09:24:28;;;;;;;13.07;4.68;;;19.40;99.90;;;;;;4194304;28;20028;-77
2021/07/29 09:26:58;;;;;;;13.75;4.75;;;19.40;99.90;;;;;;4208891;28;20032;-78
2021/07/29 09:28:59;;;;;;;15.48;3.40;;;19.40;99.90;;;;;;4191504;28;20087;-77
2021/07/29 09:31:21;;;;;;;18.75;4.85;;;19.40;99.90;;;;;;4210612;28;20052;-78
2021/07/29 09:33:22;;;;;;;10.45;3.55;;;19.20;99.90;;;;;;4211631;28;20051;-79
2021/07/29 09:35:28;;;;;;;13.52;4.72;;;18.50;99.90;;;;;;4210972;28;20024;-78
2021/07/29 09:37:29;;;;;;;12.73;4.53;;;18.20;99.90;;;;;;4185922;28;20064;-78
2021/07/29 09:39:30;;;;;;;10.02;4.32;;;18.30;99.90;;;;;;4211956;28;20062;-78
2021/07/29 09:41:30;;;;;;;12.82;4.68;;;18.70;99.90;;;;;;4209605;28;20044;-77
2021/07/29 09:43:33;;;;;;;10.70;4.28;;;19.10;99.90;;;;;;4210289;28;20024;-76
2021/07/29 09:45:37;;;;;;;9.55;3.45;;;19.40;99.90;;;;;;4206058;28;20379;-76
2021/07/29 09:47:37;;;;;;;11.98;3.95;;;19.40;99.90;;;;;;4212479;28;20528;-77
2021/07/29 09:49:40;;;;;;;15.82;4.80;;;19.40;99.90;;;;;;4192984;28;20060;-79
2021/07/29 09:51:41;;;;;;;13.52;4.40;;;19.20;99.90;;;;;;4203998;28;20028;-79
2021/07/29 09:53:41;;;;;;;12.43;3.88;;;19.10;99.90;;;;;;4208261;28;20036;-78
2021/07/29 09:55:42;;;;;;;11.05;3.88;;;19.00;99.90;;;;;;4213149;28;20027;-79
2021/07/29 09:57:43;;;;;;;9.00;4.30;;;18.70;99.90;;;;;;4208794;28;20036;-80
2021/07/29 09:59:43;;;;;;;9.07;4.10;;;18.80;99.90;;;;;;4211656;28;20028;-78
2021/07/29 10:01:44;;;;;;;12.65;4.18;;;19.20;99.90;;;;;;4191593;28;20036;-79
2021/07/29 10:03:51;;;;;;;8.73;4.55;;;19.60;99.90;;;;;;4212644;28;20036;-79
2021/07/29 10:06:06;;;;;;;10.05;4.05;;;20.00;99.90;;;;;;4192341;28;20025;-78
2021/07/29 10:08:11;;;;;;;9.13;3.80;;;20.20;99.90;;;;;;4192768;28;20060;-78
2021/07/29 10:10:19;;;;;;;5.20;3.45;;;20.50;99.90;;;;;;4191898;28;20037;-78
2021/07/29 10:12:24;;;;;;;11.60;4.05;;;20.30;99.90;;;;;;4204328;28;20054;-79
2021/07/29 10:14:49;;;;;;;13.13;3.97;;;20.10;99.90;;;;;;4192839;28;20051;-79
2021/07/29 10:16:53;;;;;;;6.43;3.30;;;19.80;99.90;;;;;;4190142;28;20032;-76
2021/07/29 10:18:53;;;;;;;11.63;4.75;;;20.00;99.90;;;;;;4209524;28;20111;-79
2021/07/29 10:21:22;;;;;;;11.00;3.72;;;20.30;99.90;;;;;;4189301;28;20150;-78
2021/07/29 10:23:27;;;;;;;12.80;5.03;;;20.60;99.90;;;;;;4196538;28;20043;-80
2021/07/29 10:25:58;;;;;;;12.52;4.82;;;21.00;99.90;;;;;;4217343;28;20519;-76
2021/07/29 10:28:24;;;;;;;8.23;3.80;;;21.20;99.90;;;;;;4210164;28;20053;-76
2021/07/29 10:30:25;;;;;;;16.30;4.70;;;21.60;99.90;;;;;;4182925;28;20368;-79
2021/07/29 10:32:45;;;;;;;15.57;4.75;;;21.70;99.90;;;;;;4205053;28;20056;-78